Observations for PISA CIV IT-AFB, Italy (LIRP)

LIRP 170015Z VRB02KT CAVOK 18/17 Q1014 NOSIG
LIRP 162345Z 12002KT CAVOK 18/17 Q1014 NOSIG
LIRP 162315Z 13003KT CAVOK 18/18 Q1013 NOSIG
LIRP 162245Z 13003KT CAVOK 19/18 Q1013 NOSIG
LIRP 162215Z 19002KT CAVOK 19/18 Q1013 NOSIG
LIRP 162145Z 18002KT CAVOK 20/18 Q1013 NOSIG
LIRP 162115Z 00000KT CAVOK 22/20 Q1013 NOSIG
LIRP 162045Z 19002KT CAVOK 22/20 Q1013 NOSIG
LIRP 162015Z 32003KT CAVOK 23/19 Q1013 NOSIG
LIRP 161945Z 31005KT CAVOK 24/19 Q1013 NOSIG
LIRP 161915Z 30005KT CAVOK 24/17 Q1013 NOSIG
LIRP 161845Z 31006KT CAVOK 25/17 Q1013 NOSIG
LIRP 161815Z 32006KT CAVOK 25/17 Q1012 NOSIG
LIRP 161745Z 32008KT CAVOK 26/15 Q1013 NOSIG
LIRP 161715Z 32009KT CAVOK 26/14 Q1013 NOSIG
LIRP 161645Z 31009KT CAVOK 27/13 Q1012 NOSIG
LIRP 161615Z 31009KT CAVOK 27/13 Q1012 NOSIG
LIRP 161545Z 31010KT 9999 FEW060 28/13 Q1012 NOSIG  
LIRP 161515Z 32011KT 9999 FEW060 28/12 Q1013 NOSIG  
LIRP 161445Z 28013KT 9999 FEW060 29/12 Q1013 NOSIG  
LIRP 161415Z 31010KT 9999 FEW060 29/12 Q1013 NOSIG  
LIRP 161345Z 30010KT 9999 FEW050 28/12 Q1013 NOSIG  
LIRP 161315Z 31009KT 9999 FEW050 28/12 Q1013 NOSIG  
LIRP 161245Z 33010KT 9999 FEW050 28/13 Q1013 NOSIG  
LIRP 161215Z 31009KT 9999 FEW050 28/13 Q1013 NOSIG  
LIRP 161145Z 31011G21KT 9999 FEW050 28/12 Q1013 NOSIG   
LIRP 161115Z 25005KT 9999 FEW050 28/14 Q1013 NOSIG  
LIRP 161045Z 01012KT CAVOK 28/11 Q1013 NOSIG
LIRP 161015Z 02007KT CAVOK 27/11 Q1013 NOSIG
LIRP 160945Z 22003KT CAVOK 26/11 Q1013 NOSIG
LIRP 160915Z 08004KT CAVOK 26/11 Q1013 NOSIG
LIRP 160845Z 32002KT CAVOK 25/11 Q1013 NOSIG
LIRP 160815Z 35005KT CAVOK 25/12 Q1013 NOSIG
LIRP 160745Z 30003KT CAVOK 24/14 Q1013 NOSIG
LIRP 160715Z 07002KT CAVOK 23/13 Q1012 NOSIG
LIRP 160645Z 10003KT CAVOK 21/16 Q1012 NOSIG
LIRP 160615Z 13002KT CAVOK 20/15 Q1012 NOSIG
LIRP 160545Z 21003KT CAVOK 18/15 Q1012 NOSIG
LIRP 160515Z VRB01KT CAVOK 17/15 Q1012 NOSIG
LIRP 160445Z VRB02KT CAVOK 16/15 Q1012 NOSIG
LIRP 160415Z 24004KT CAVOK 16/15 Q1011 NOSIG
LIRP 160345Z 25004KT CAVOK 16/15 Q1011 NOSIG
LIRP 160315Z 16005KT CAVOK 17/15 Q1011 NOSIG
LIRP 160245Z 16005KT CAVOK 17/14 Q1011 NOSIG
LIRP 160215Z 15005KT CAVOK 19/13 Q1011 NOSIG
LIRP 160145Z VRB03KT 9999 FEW080 20/13 Q1011 NOSIG  
LIRP 160115Z VRB03KT 9999 SCT080 18/15 Q1011 NOSIG  
LIRP 160045Z VRB03KT 9999 SCT080 18/16 Q1011 NOSIG  
LIRP 160015Z VRB03KT CAVOK 18/16 Q1011 NOSIG
LIRP 152345Z 08003KT CAVOK 18/17 Q1011 NOSIG